sensor_id;sensor_type;location;lat;lon;timestamp;pressure;altitude;pressure_sealevel;temperature;humidity
7524;BME280;3803;51.666;7.630;2023-01-26T00:00:09;101954.06;;;1.17;57.74
7524;BME280;3803;51.666;7.630;2023-01-26T00:00:30;101956.94;;;1.20;58.06
7524;BME280;3803;51.666;7.630;2023-01-26T00:00:51;101952.41;;;1.18;57.83
7524;BME280;3803;51.666;7.630;2023-01-26T00:01:15;101960.38;;;1.21;57.98
7524;BME280;3803;51.666;7.630;2023-01-26T00:01:36;101952.16;;;1.15;57.64
7524;BME280;3803;51.666;7.630;2023-01-26T00:01:57;101946.25;;;1.16;57.61
7524;BME280;3803;51.666;7.630;2023-01-26T00:02:18;101951.50;;;1.17;58.18
7524;BME280;3803;51.666;7.630;2023-01-26T00:02:38;101950.63;;;1.17;57.94
7524;BME280;3803;51.666;7.630;2023-01-26T00:02:59;101949.06;;;1.19;57.92
7524;BME280;3803;51.666;7.630;2023-01-26T00:03:20;101955.75;;;1.17;57.89
7524;BME280;3803;51.666;7.630;2023-01-26T00:03:41;101938.25;;;1.13;57.67
7524;BME280;3803;51.666;7.630;2023-01-26T00:04:02;101943.69;;;1.16;57.82
7524;BME280;3803;51.666;7.630;2023-01-26T00:04:23;101928.75;;;1.12;57.73
7524;BME280;3803;51.666;7.630;2023-01-26T00:04:44;101945.22;;;1.14;57.86
7524;BME280;3803;51.666;7.630;2023-01-26T00:05:05;101953.44;;;1.20;57.86
7524;BME280;3803;51.666;7.630;2023-01-26T00:05:25;101936.47;;;1.12;57.98
7524;BME280;3803;51.666;7.630;2023-01-26T00:05:46;101927.56;;;1.08;57.38
7524;BME280;3803;51.666;7.630;2023-01-26T00:06:09;101941.59;;;1.12;58.08
7524;BME280;3803;51.666;7.630;2023-01-26T00:06:30;101932.63;;;1.06;57.88
7524;BME280;3803;51.666;7.630;2023-01-26T00:06:50;101919.47;;;1.03;57.96
7524;BME280;3803;51.666;7.630;2023-01-26T00:07:11;101931.56;;;1.04;57.85
7524;BME280;3803;51.666;7.630;2023-01-26T00:07:32;101923.34;;;1.08;58.13
7524;BME280;3803;51.666;7.630;2023-01-26T00:07:53;101917.31;;;1.29;57.42
7524;BME280;3803;51.666;7.630;2023-01-26T00:08:13;101938.03;;;1.51;57.24
7524;BME280;3803;51.666;7.630;2023-01-26T00:08:39;101936.09;;;1.48;57.25
7524;BME280;3803;51.666;7.630;2023-01-26T00:08:59;101940.88;;;1.54;56.95
7524;BME280;3803;51.666;7.630;2023-01-26T00:09:21;101930.81;;;1.57;56.62
7524;BME280;3803;51.666;7.630;2023-01-26T00:09:41;101941.09;;;1.68;56.86
7524;BME280;3803;51.666;7.630;2023-01-26T00:10:02;101931.72;;;1.68;56.52
7524;BME280;3803;51.666;7.630;2023-01-26T00:10:23;101917.16;;;1.69;56.66
7524;BME280;3803;51.666;7.630;2023-01-26T00:10:43;101925.94;;;1.71;56.53
7524;BME280;3803;51.666;7.630;2023-01-26T00:11:11;101927.22;;;1.66;56.31
7524;BME280;3803;51.666;7.630;2023-01-26T00:11:32;101925.19;;;1.61;56.19
7524;BME280;3803;51.666;7.630;2023-01-26T00:11:52;101923.34;;;1.60;56.27
7524;BME280;3803;51.666;7.630;2023-01-26T00:12:13;101921.84;;;1.62;56.47
7524;BME280;3803;51.666;7.630;2023-01-26T00:12:33;101920.28;;;1.65;56.44
7524;BME280;3803;51.666;7.630;2023-01-26T00:12:54;101924.13;;;1.70;56.04
7524;BME280;3803;51.666;7.630;2023-01-26T00:13:17;101930.44;;;1.73;55.90
7524;BME280;3803;51.666;7.630;2023-01-26T00:13:42;101922.59;;;1.72;56.08
7524;BME280;3803;51.666;7.630;2023-01-26T00:14:02;101918.72;;;1.67;55.98
7524;BME280;3803;51.666;7.630;2023-01-26T00:14:23;101918.47;;;1.74;56.15
7524;BME280;3803;51.666;7.630;2023-01-26T00:14:44;101920.16;;;1.73;56.04
7524;BME280;3803;51.666;7.630;2023-01-26T00:15:10;101923.59;;;1.74;55.93
7524;BME280;3803;51.666;7.630;2023-01-26T00:15:31;101916.03;;;1.55;56.44
7524;BME280;3803;51.666;7.630;2023-01-26T00:15:52;101916.16;;;1.67;55.89
7524;BME280;3803;51.666;7.630;2023-01-26T00:16:13;101913.06;;;1.71;56.12
7524;BME280;3803;51.666;7.630;2023-01-26T00:16:34;101918.84;;;1.79;56.02
7524;BME280;3803;51.666;7.630;2023-01-26T00:16:55;101911.09;;;1.79;56.00
7524;BME280;3803;51.666;7.630;2023-01-26T00:17:16;101913.03;;;1.81;55.70
7524;BME280;3803;51.666;7.630;2023-01-26T00:17:45;101923.34;;;1.81;55.41
7524;BME280;3803;51.666;7.630;2023-01-26T00:18:05;101910.34;;;1.80;55.49
7524;BME280;3803;51.666;7.630;2023-01-26T00:18:26;101904.31;;;1.79;55.91
7524;BME280;3803;51.666;7.630;2023-01-26T00:18:46;101919.22;;;1.83;55.52
7524;BME280;3803;51.666;7.630;2023-01-26T00:19:07;101920.13;;;1.84;55.66
7524;BME280;3803;51.666;7.630;2023-01-26T00:19:28;101918.44;;;1.84;55.91
7524;BME280;3803;51.666;7.630;2023-01-26T00:19:48;101901.34;;;1.74;55.92
7524;BME280;3803;51.666;7.630;2023-01-26T00:20:09;101906.50;;;1.74;56.09
7524;BME280;3803;51.666;7.630;2023-01-26T00:20:30;101905.88;;;1.77;56.08
7524;BME280;3803;51.666;7.630;2023-01-26T00:20:58;101901.09;;;1.71;55.70
7524;BME280;3803;51.666;7.630;2023-01-26T00:21:20;101908.44;;;1.77;55.58
7524;BME280;3803;51.666;7.630;2023-01-26T00:21:41;101913.03;;;1.81;55.95
7524;BME280;3803;51.666;7.630;2023-01-26T00:22:01;101904.81;;;1.75;55.69
7524;BME280;3803;51.666;7.630;2023-01-26T00:22:25;101911.25;;;1.80;55.93
7524;BME280;3803;51.666;7.630;2023-01-26T00:22:46;101906.59;;;1.76;55.47
7524;BME280;3803;51.666;7.630;2023-01-26T00:23:06;101910.22;;;1.78;55.71
7524;BME280;3803;51.666;7.630;2023-01-26T00:23:29;101914.84;;;1.82;55.56
7524;BME280;3803;51.666;7.630;2023-01-26T00:23:58;101912.91;;;1.80;55.80
7524;BME280;3803;51.666;7.630;2023-01-26T00:24:19;101911.47;;;1.83;55.80
7524;BME280;3803;51.666;7.630;2023-01-26T00:24:40;101900.44;;;1.74;55.76
7524;BME280;3803;51.666;7.630;2023-01-26T00:25:00;101915.09;;;1.85;55.62
7524;BME280;3803;51.666;7.630;2023-01-26T00:25:21;101907.78;;;1.69;56.02
7524;BME280;3803;51.666;7.630;2023-01-26T00:25:42;101906.75;;;1.57;56.20
7524;BME280;3803;51.666;7.630;2023-01-26T00:26:19;101922.88;;;1.54;56.18
7524;BME280;3803;51.666;7.630;2023-01-26T00:26:40;101917.69;;;1.65;56.41
7524;BME280;3803;51.666;7.630;2023-01-26T00:27:01;101917.69;;;1.75;56.33
7524;BME280;3803;51.666;7.630;2023-01-26T00:27:21;101902.88;;;1.72;55.89
7524;BME280;3803;51.666;7.630;2023-01-26T00:27:42;101906.88;;;1.69;55.84
7524;BME280;3803;51.666;7.630;2023-01-26T00:28:04;101902.78;;;1.71;56.15
7524;BME280;3803;51.666;7.630;2023-01-26T00:28:26;101898.41;;;1.70;56.10
7524;BME280;3803;51.666;7.630;2023-01-26T00:28:47;101907.38;;;1.75;55.83
7524;BME280;3803;51.666;7.630;2023-01-26T00:29:08;101895.06;;;1.71;56.36
7524;BME280;3803;51.666;7.630;2023-01-26T00:29:28;101897.50;;;1.48;55.92
7524;BME280;3803;51.666;7.630;2023-01-26T00:29:49;101898.69;;;1.31;56.83
7524;BME280;3803;51.666;7.630;2023-01-26T00:30:10;101894.81;;;1.26;56.97
7524;BME280;3803;51.666;7.630;2023-01-26T00:30:30;101895.69;;;1.16;56.97
7524;BME280;3803;51.666;7.630;2023-01-26T00:30:51;101898.28;;;1.16;57.37
7524;BME280;3803;51.666;7.630;2023-01-26T00:31:18;101898.56;;;1.19;57.74
7524;BME280;3803;51.666;7.630;2023-01-26T00:31:40;101901.50;;;1.24;57.59
7524;BME280;3803;51.666;7.630;2023-01-26T00:32:00;101895.72;;;1.27;57.43
7524;BME280;3803;51.666;7.630;2023-01-26T00:32:21;101903.06;;;1.22;57.47
7524;BME280;3803;51.666;7.630;2023-01-26T00:32:42;101889.66;;;1.05;57.69
7524;BME280;3803;51.666;7.630;2023-01-26T00:33:03;101892.22;;;1.05;58.00
7524;BME280;3803;51.666;7.630;2023-01-26T00:33:23;101904.81;;;1.02;58.12
7524;BME280;3803;51.666;7.630;2023-01-26T00:33:44;101890.41;;;0.94;57.89
7524;BME280;3803;51.666;7.630;2023-01-26T00:34:04;101891.97;;;0.92;58.25
7524;BME280;3803;51.666;7.630;2023-01-26T00:34:25;101883.88;;;0.87;58.54
7524;BME280;3803;51.666;7.630;2023-01-26T00:34:46;101885.66;;;0.88;58.28
7524;BME280;3803;51.666;7.630;2023-01-26T00:35:07;101888.25;;;0.99;58.38
7524;BME280;3803;51.666;7.630;2023-01-26T00:35:30;101906.00;;;1.06;58.41
7524;BME280;3803;51.666;7.630;2023-01-26T00:35:53;101890.94;;;1.00;58.14
7524;BME280;3803;51.666;7.630;2023-01-26T00:36:14;101902.53;;;1.16;58.34
7524;BME280;3803;51.666;7.630;2023-01-26T00:36:35;101885.31;;;1.15;57.87
7524;BME280;3803;51.666;7.630;2023-01-26T00:36:56;101891.84;;;1.21;57.86
7524;BME280;3803;51.666;7.630;2023-01-26T00:37:18;101897.63;;;1.29;57.74
7524;BME280;3803;51.666;7.630;2023-01-26T00:37:42;101901.09;;;1.40;57.75
7524;BME280;3803;51.666;7.630;2023-01-26T00:38:03;101890.19;;;1.32;57.38
7524;BME280;3803;51.666;7.630;2023-01-26T00:38:23;101891.09;;;1.12;57.86
7524;BME280;3803;51.666;7.630;2023-01-26T00:38:44;101905.75;;;1.34;58.07
7524;BME280;3803;51.666;7.630;2023-01-26T00:39:05;101902.16;;;1.42;57.61
7524;BME280;3803;51.666;7.630;2023-01-26T00:39:28;101887.09;;;1.36;57.47
7524;BME280;3803;51.666;7.630;2023-01-26T00:39:48;101882.84;;;1.37;57.40
7524;BME280;3803;51.666;7.630;2023-01-26T00:40:09;101884.78;;;1.19;57.67
7524;BME280;3803;51.666;7.630;2023-01-26T00:40:30;101894.56;;;1.33;57.79
7524;BME280;3803;51.666;7.630;2023-01-26T00:40:51;101900.09;;;1.38;57.67
7524;BME280;3803;51.666;7.630;2023-01-26T00:41:12;101877.47;;;1.34;57.53
7524;BME280;3803;51.666;7.630;2023-01-26T00:41:53;101890.69;;;1.59;57.35
7524;BME280;3803;51.666;7.630;2023-01-26T00:42:25;101882.19;;;1.60;56.94
7524;BME280;3803;51.666;7.630;2023-01-26T00:42:46;101885.91;;;1.64;57.03
7524;BME280;3803;51.666;7.630;2023-01-26T00:43:07;101884.75;;;1.71;56.76
7524;BME280;3803;51.666;7.630;2023-01-26T00:43:28;101890.31;;;1.65;56.78
7524;BME280;3803;51.666;7.630;2023-01-26T00:43:48;101890.03;;;1.62;56.79
7524;BME280;3803;51.666;7.630;2023-01-26T00:44:09;101881.31;;;1.60;57.14
7524;BME280;3803;51.666;7.630;2023-01-26T00:44:29;101870.38;;;1.62;56.99
7524;BME280;3803;51.666;7.630;2023-01-26T00:44:50;101881.41;;;1.72;56.68
7524;BME280;3803;51.666;7.630;2023-01-26T00:45:10;101870.63;;;1.55;57.09
7524;BME280;3803;51.666;7.630;2023-01-26T00:45:33;101875.03;;;1.46;57.07
7524;BME280;3803;51.666;7.630;2023-01-26T00:45:54;101877.72;;;1.58;57.13
7524;BME280;3803;51.666;7.630;2023-01-26T00:46:15;101890.69;;;1.59;57.50
7524;BME280;3803;51.666;7.630;2023-01-26T00:46:35;101874.34;;;1.48;56.97
7524;BME280;3803;51.666;7.630;2023-01-26T00:46:58;101877.81;;;1.59;57.15
7524;BME280;3803;51.666;7.630;2023-01-26T00:47:21;101875.97;;;1.69;56.99
7524;BME280;3803;51.666;7.630;2023-01-26T00:47:41;101879.34;;;1.68;56.96
7524;BME280;3803;51.666;7.630;2023-01-26T00:48:04;101868.16;;;1.67;56.66
7524;BME280;3803;51.666;7.630;2023-01-26T00:48:25;101880.38;;;1.59;57.13
7524;BME280;3803;51.666;7.630;2023-01-26T00:48:45;101881.13;;;1.69;56.98
7524;BME280;3803;51.666;7.630;2023-01-26T00:49:06;101876.53;;;1.65;56.91
7524;BME280;3803;51.666;7.630;2023-01-26T00:49:27;101874.19;;;1.68;57.18
7524;BME280;3803;51.666;7.630;2023-01-26T00:49:47;101870.09;;;1.70;56.41
7524;BME280;3803;51.666;7.630;2023-01-26T00:50:08;101878.28;;;1.76;57.06
7524;BME280;3803;51.666;7.630;2023-01-26T00:50:29;101872.91;;;1.73;56.54
7524;BME280;3803;51.666;7.630;2023-01-26T00:50:51;101876.50;;;1.75;56.66
7524;BME280;3803;51.666;7.630;2023-01-26T00:51:11;101885.50;;;1.80;56.56
7524;BME280;3803;51.666;7.630;2023-01-26T00:51:32;101876.22;;;1.82;56.13
7524;BME280;3803;51.666;7.630;2023-01-26T00:51:52;101877.00;;;1.81;56.60
7524;BME280;3803;51.666;7.630;2023-01-26T00:52:13;101878.56;;;1.79;56.45
7524;BME280;3803;51.666;7.630;2023-01-26T00:52:34;101888.31;;;1.83;56.66
7524;BME280;3803;51.666;7.630;2023-01-26T00:52:55;101883.16;;;1.83;56.44
7524;BME280;3803;51.666;7.630;2023-01-26T00:53:17;101879.97;;;1.75;56.09
7524;BME280;3803;51.666;7.630;2023-01-26T00:53:39;101893.72;;;1.86;56.62
7524;BME280;3803;51.666;7.630;2023-01-26T00:53:59;101881.13;;;1.79;56.39
7524;BME280;3803;51.666;7.630;2023-01-26T00:54:20;101875.22;;;1.80;56.53
7524;BME280;3803;51.666;7.630;2023-01-26T00:54:41;101880.34;;;1.80;55.99
7524;BME280;3803;51.666;7.630;2023-01-26T00:55:02;101878.56;;;1.79;56.33
7524;BME280;3803;51.666;7.630;2023-01-26T00:55:23;101883.44;;;1.86;56.35
7524;BME280;3803;51.666;7.630;2023-01-26T00:55:44;101886.00;;;1.86;56.33
7524;BME280;3803;51.666;7.630;2023-01-26T00:56:05;101878.56;;;1.79;56.68
7524;BME280;3803;51.666;7.630;2023-01-26T00:56:27;101881.91;;;1.78;56.61
7524;BME280;3803;51.666;7.630;2023-01-26T00:56:47;101880.34;;;1.80;56.22
7524;BME280;3803;51.666;7.630;2023-01-26T00:57:08;101883.31;;;1.85;56.56
7524;BME280;3803;51.666;7.630;2023-01-26T00:57:29;101879.72;;;1.83;56.56
7524;BME280;3803;51.666;7.630;2023-01-26T00:57:50;101876.09;;;1.81;55.97
7524;BME280;3803;51.666;7.630;2023-01-26T00:58:11;101889.75;;;1.90;56.07
7524;BME280;3803;51.666;7.630;2023-01-26T00:58:32;101884.22;;;1.85;56.14
7524;BME280;3803;51.666;7.630;2023-01-26T00:58:53;101883.53;;;1.88;56.11
7524;BME280;3803;51.666;7.630;2023-01-26T00:59:13;101878.81;;;1.82;56.12
7524;BME280;3803;51.666;7.630;2023-01-26T00:59:38;101883.31;;;1.85;56.24
7524;BME280;3803;51.666;7.630;2023-01-26T00:59:58;101872.78;;;1.82;55.92
7524;BME280;3803;51.666;7.630;2023-01-26T01:00:19;101871.72;;;1.80;56.63
7524;BME280;3803;51.666;7.630;2023-01-26T01:00:39;101875.22;;;1.80;56.61
7524;BME280;3803;51.666;7.630;2023-01-26T01:01:00;101875.47;;;1.73;56.75
7524;BME280;3803;51.666;7.630;2023-01-26T01:01:20;101859.97;;;1.51;56.92
7524;BME280;3803;51.666;7.630;2023-01-26T01:01:42;101870.38;;;1.62;56.80
7524;BME280;3803;51.666;7.630;2023-01-26T01:02:02;101865.84;;;1.60;56.73
7524;BME280;3803;51.666;7.630;2023-01-26T01:02:23;101876.78;;;1.57;57.06
7524;BME280;3803;51.666;7.630;2023-01-26T01:02:44;101863.41;;;1.61;56.65
7524;BME280;3803;51.666;7.630;2023-01-26T01:03:05;101875.50;;;1.62;56.64
7524;BME280;3803;51.666;7.630;2023-01-26T01:03:26;101861.50;;;1.59;56.77
7524;BME280;3803;51.666;7.630;2023-01-26T01:03:46;101866.75;;;1.71;57.26
7524;BME280;3803;51.666;7.630;2023-01-26T01:04:07;101867.75;;;1.73;56.54
7524;BME280;3803;51.666;7.630;2023-01-26T01:04:30;101868.78;;;1.75;56.73
7524;BME280;3803;51.666;7.630;2023-01-26T01:04:51;101860.19;;;1.74;56.91
7524;BME280;3803;51.666;7.630;2023-01-26T01:05:12;101864.69;;;1.67;56.83
7524;BME280;3803;51.666;7.630;2023-01-26T01:05:33;101867.75;;;1.73;56.73
7524;BME280;3803;51.666;7.630;2023-01-26T01:05:54;101868.00;;;1.76;56.85
7524;BME280;3803;51.666;7.630;2023-01-26T01:06:15;101848.72;;;1.71;56.73
7524;BME280;3803;51.666;7.630;2023-01-26T01:06:35;101859.81;;;1.70;56.78
7524;BME280;3803;51.666;7.630;2023-01-26T01:06:57;101867.25;;;1.77;56.66
7524;BME280;3803;51.666;7.630;2023-01-26T01:07:18;101859.91;;;1.71;57.13
7524;BME280;3803;51.666;7.630;2023-01-26T01:07:39;101875.47;;;1.73;56.83
7524;BME280;3803;51.666;7.630;2023-01-26T01:08:00;101877.25;;;1.84;56.90
7524;BME280;3803;51.666;7.630;2023-01-26T01:08:21;101870.19;;;1.82;56.88
7524;BME280;3803;51.666;7.630;2023-01-26T01:08:41;101867.50;;;1.80;56.71
7524;BME280;3803;51.666;7.630;2023-01-26T01:09:02;101865.81;;;1.70;56.68
7524;BME280;3803;51.666;7.630;2023-01-26T01:09:23;101861.06;;;1.75;56.93
7524;BME280;3803;51.666;7.630;2023-01-26T01:09:44;101865.72;;;1.58;57.34
7524;BME280;3803;51.666;7.630;2023-01-26T01:10:07;101853.66;;;1.47;57.36
7524;BME280;3803;51.666;7.630;2023-01-26T01:10:28;101859.44;;;1.44;57.34
7524;BME280;3803;51.666;7.630;2023-01-26T01:10:49;101871.53;;;1.45;57.47
7524;BME280;3803;51.666;7.630;2023-01-26T01:11:10;101869.59;;;1.43;57.62
7524;BME280;3803;51.666;7.630;2023-01-26T01:11:31;101867.81;;;1.31;58.25
7524;BME280;3803;51.666;7.630;2023-01-26T01:11:51;101872.44;;;1.25;58.47
7524;BME280;3803;51.666;7.630;2023-01-26T01:12:12;101862.16;;;1.15;58.63
7524;BME280;3803;51.666;7.630;2023-01-26T01:12:33;101864.22;;;1.08;58.61
7524;BME280;3803;51.666;7.630;2023-01-26T01:12:54;101857.91;;;1.05;58.94
7524;BME280;3803;51.666;7.630;2023-01-26T01:13:17;101859.31;;;1.01;59.05
7524;BME280;3803;51.666;7.630;2023-01-26T01:13:38;101858.31;;;1.10;59.16
7524;BME280;3803;51.666;7.630;2023-01-26T01:13:59;101858.94;;;1.17;58.70
7524;BME280;3803;51.666;7.630;2023-01-26T01:14:19;101871.91;;;1.29;59.06
7524;BME280;3803;51.666;7.630;2023-01-26T01:14:40;101861.25;;;1.25;58.91
7524;BME280;3803;51.666;7.630;2023-01-26T01:15:01;101847.75;;;1.17;58.81
7524;BME280;3803;51.666;7.630;2023-01-26T01:15:21;101860.47;;;1.15;58.67
7524;BME280;3803;51.666;7.630;2023-01-26T01:15:51;101859.59;;;1.15;58.99
7524;BME280;3803;51.666;7.630;2023-01-26T01:16:13;101855.84;;;1.01;59.40
7524;BME280;3803;51.666;7.630;2023-01-26T01:16:35;101846.72;;;0.94;59.38
7524;BME280;3803;51.666;7.630;2023-01-26T01:16:56;101855.72;;;1.10;59.20
7524;BME280;3803;51.666;7.630;2023-01-26T01:17:16;101859.59;;;1.15;59.08
7524;BME280;3803;51.666;7.630;2023-01-26T01:17:37;101850.81;;;1.13;58.95
7524;BME280;3803;51.666;7.630;2023-01-26T01:17:58;101866.28;;;1.23;59.57
7524;BME280;3803;51.666;7.630;2023-01-26T01:18:18;101857.28;;;1.18;59.37
7524;BME280;3803;51.666;7.630;2023-01-26T01:18:40;101866.28;;;1.23;59.19
7524;BME280;3803;51.666;7.630;2023-01-26T01:19:02;101854.94;;;1.21;59.14
7524;BME280;3803;51.666;7.630;2023-01-26T01:19:23;101859.44;;;1.24;59.22
7524;BME280;3803;51.666;7.630;2023-01-26T01:19:44;101849.78;;;1.21;59.32
7524;BME280;3803;51.666;7.630;2023-01-26T01:20:07;101864.72;;;1.25;59.13
7524;BME280;3803;51.666;7.630;2023-01-26T01:20:28;101861.63;;;1.19;59.13
7524;BME280;3803;51.666;7.630;2023-01-26T01:20:49;101844.03;;;1.03;59.35
7524;BME280;3803;51.666;7.630;2023-01-26T01:21:15;101854.97;;;1.00;59.90
7524;BME280;3803;51.666;7.630;2023-01-26T01:21:35;101850.56;;;0.89;60.07
7524;BME280;3803;51.666;7.630;2023-01-26T01:21:56;101844.25;;;0.85;59.73
7524;BME280;3803;51.666;7.630;2023-01-26T01:22:17;101850.31;;;0.96;59.95
7524;BME280;3803;51.666;7.630;2023-01-26T01:22:38;101851.63;;;1.01;59.88
7524;BME280;3803;51.666;7.630;2023-01-26T01:22:59;101855.34;;;0.94;59.96
7524;BME280;3803;51.666;7.630;2023-01-26T01:23:21;101849.81;;;1.00;59.85
7524;BME280;3803;51.666;7.630;2023-01-26T01:23:41;101845.84;;;1.04;59.85
7524;BME280;3803;51.666;7.630;2023-01-26T01:24:02;101859.97;;;1.09;59.85
7524;BME280;3803;51.666;7.630;2023-01-26T01:24:24;101848.50;;;1.05;59.69
7524;BME280;3803;51.666;7.630;2023-01-26T01:24:44;101845.69;;;1.13;59.84
7524;BME280;3803;51.666;7.630;2023-01-26T01:25:05;101856.50;;;1.19;59.97
7524;BME280;3803;51.666;7.630;2023-01-26T01:25:25;101857.03;;;1.15;59.46
7524;BME280;3803;51.666;7.630;2023-01-26T01:25:46;101849.56;;;1.07;59.75
7524;BME280;3803;51.666;7.630;2023-01-26T01:26:15;101856.22;;;1.05;59.53
7524;BME280;3803;51.666;7.630;2023-01-26T01:26:37;101857.53;;;1.11;59.98
7524;BME280;3803;51.666;7.630;2023-01-26T01:26:57;101851.84;;;1.04;60.12
7524;BME280;3803;51.666;7.630;2023-01-26T01:27:18;101853.16;;;1.10;60.08
7524;BME280;3803;51.666;7.630;2023-01-26T01:27:38;101849.81;;;1.11;60.00
7524;BME280;3803;51.666;7.630;2023-01-26T01:27:59;101858.69;;;1.14;60.16
7524;BME280;3803;51.666;7.630;2023-01-26T01:28:20;101861.25;;;1.14;59.84
7524;BME280;3803;51.666;7.630;2023-01-26T01:28:41;101864.06;;;1.17;59.81
7524;BME280;3803;51.666;7.630;2023-01-26T01:29:03;101869.50;;;1.20;59.89
7524;BME280;3803;51.666;7.630;2023-01-26T01:29:23;101863.84;;;1.04;60.29
7524;BME280;3803;51.666;7.630;2023-01-26T01:29:44;101861.38;;;0.95;60.07
7524;BME280;3803;51.666;7.630;2023-01-26T01:30:05;101868.56;;;0.89;60.67
7524;BME280;3803;51.666;7.630;2023-01-26T01:30:27;101871.66;;;0.95;60.30
7524;BME280;3803;51.666;7.630;2023-01-26T01:30:48;101857.53;;;0.90;60.83
7524;BME280;3803;51.666;7.630;2023-01-26T01:31:11;101854.69;;;0.87;60.61
7524;BME280;3803;51.666;7.630;2023-01-26T01:31:33;101866.75;;;0.88;60.76
7524;BME280;3803;51.666;7.630;2023-01-26T01:31:54;101869.31;;;0.88;60.84
7524;BME280;3803;51.666;7.630;2023-01-26T01:32:14;101868.31;;;0.96;61.03
7524;BME280;3803;51.666;7.630;2023-01-26T01:32:35;101864.72;;;0.94;60.75
7524;BME280;3803;51.666;7.630;2023-01-26T01:32:56;101858.94;;;0.97;61.01
7524;BME280;3803;51.666;7.630;2023-01-26T01:33:16;101853.66;;;1.05;60.76
7524;BME280;3803;51.666;7.630;2023-01-26T01:33:37;101862.94;;;1.14;60.61
7524;BME280;3803;51.666;7.630;2023-01-26T01:33:59;101855.97;;;1.13;60.63
7524;BME280;3803;51.666;7.630;2023-01-26T01:34:20;101859.84;;;1.18;60.33
7524;BME280;3803;51.666;7.630;2023-01-26T01:34:40;101861.00;;;1.21;60.74
7524;BME280;3803;51.666;7.630;2023-01-26T01:35:01;101860.09;;;1.21;60.55
7524;BME280;3803;51.666;7.630;2023-01-26T01:35:22;101850.06;;;1.24;60.40
7524;BME280;3803;51.666;7.630;2023-01-26T01:35:43;101850.31;;;1.27;60.67
7524;BME280;3803;51.666;7.630;2023-01-26T01:36:06;101869.09;;;1.36;60.38
7524;BME280;3803;51.666;7.630;2023-01-26T01:36:27;101850.44;;;1.29;60.18
7524;BME280;3803;51.666;7.630;2023-01-26T01:36:50;101855.47;;;1.27;60.22
7524;BME280;3803;51.666;7.630;2023-01-26T01:37:11;101864.19;;;1.29;60.39
7524;BME280;3803;51.666;7.630;2023-01-26T01:37:33;101870.13;;;1.18;60.00
7524;BME280;3803;51.666;7.630;2023-01-26T01:37:54;101852.38;;;1.21;60.25
7524;BME280;3803;51.666;7.630;2023-01-26T01:38:14;101863.94;;;1.26;60.49
7524;BME280;3803;51.666;7.630;2023-01-26T01:38:35;101862.03;;;1.24;60.29
7524;BME280;3803;51.666;7.630;2023-01-26T01:38:56;101869.34;;;1.29;60.20
7524;BME280;3803;51.666;7.630;2023-01-26T01:39:17;101864.47;;;1.32;60.53
7524;BME280;3803;51.666;7.630;2023-01-26T01:39:38;101861.38;;;1.16;60.69
7524;BME280;3803;51.666;7.630;2023-01-26T01:39:59;101862.94;;;1.14;60.49
7524;BME280;3803;51.666;7.630;2023-01-26T01:40:19;101851.88;;;1.15;60.81
7524;BME280;3803;51.666;7.630;2023-01-26T01:40:43;101849.56;;;1.18;60.75
7524;BME280;3803;51.666;7.630;2023-01-26T01:41:03;101853.53;;;1.14;60.65
7524;BME280;3803;51.666;7.630;2023-01-26T01:41:24;101852.50;;;1.22;60.51
7524;BME280;3803;51.666;7.630;2023-01-26T01:41:46;101845.06;;;1.26;60.87
7524;BME280;3803;51.666;7.630;2023-01-26T01:42:06;101858.56;;;1.23;60.57
7524;BME280;3803;51.666;7.630;2023-01-26T01:42:27;101846.59;;;1.24;60.88
7524;BME280;3803;51.666;7.630;2023-01-26T01:42:48;101844.16;;;1.15;60.67
7524;BME280;3803;51.666;7.630;2023-01-26T01:43:11;101856.78;;;1.22;61.13
7524;BME280;3803;51.666;7.630;2023-01-26T01:43:32;101852.13;;;1.28;60.76
7524;BME280;3803;51.666;7.630;2023-01-26T01:44:16;101847.25;;;1.31;60.89
7524;BME280;3803;51.666;7.630;2023-01-26T01:44:38;101836.03;;;1.31;60.85
7524;BME280;3803;51.666;7.630;2023-01-26T01:45:50;101839.28;;;1.39;60.75
7524;BME280;3803;51.666;7.630;2023-01-26T01:46:17;101845.56;;;1.42;60.34
7524;BME280;3803;51.666;7.630;2023-01-26T01:46:48;101857.91;;;1.46;60.48
7524;BME280;3803;51.666;7.630;2023-01-26T01:47:17;101851.72;;;1.44;60.52
7524;BME280;3803;51.666;7.630;2023-01-26T01:47:40;101841.06;;;1.40;60.41
7524;BME280;3803;51.666;7.630;2023-01-26T01:48:03;101835.91;;;1.40;60.72
7524;BME280;3803;51.666;7.630;2023-01-26T01:48:30;101845.44;;;1.41;60.67
7524;BME280;3803;51.666;7.630;2023-01-26T01:48:57;101855.97;;;1.54;60.44
7524;BME280;3803;51.666;7.630;2023-01-26T01:49:23;101844.16;;;1.46;60.43
7524;BME280;3803;51.666;7.630;2023-01-26T01:49:49;101844.16;;;1.46;60.26
7524;BME280;3803;51.666;7.630;2023-01-26T01:50:14;101848.75;;;1.50;60.63
7524;BME280;3803;51.666;7.630;2023-01-26T01:50:38;101840.53;;;1.44;60.50
7524;BME280;3803;51.666;7.630;2023-01-26T01:51:07;101841.31;;;1.43;60.65
7524;BME280;3803;51.666;7.630;2023-01-26T01:51:34;101857.50;;;1.52;60.79
7524;BME280;3803;51.666;7.630;2023-01-26T01:52:29;101838.34;;;1.38;61.03
7524;BME280;3803;51.666;7.630;2023-01-26T01:52:53;101836.16;;;1.43;60.52
7524;BME280;3803;51.666;7.630;2023-01-26T01:53:17;101830.78;;;1.40;60.88
7524;BME280;3803;51.666;7.630;2023-01-26T01:53:46;101841.31;;;1.43;60.67
7524;BME280;3803;51.666;7.630;2023-01-26T01:54:10;101837.47;;;1.27;60.65
7524;BME280;3803;51.666;7.630;2023-01-26T01:54:38;101841.31;;;1.32;61.03
7524;BME280;3803;51.666;7.630;2023-01-26T01:55:04;101840.31;;;1.30;61.16
7524;BME280;3803;51.666;7.630;2023-01-26T01:55:28;101840.94;;;1.28;61.48
7524;BME280;3803;51.666;7.630;2023-01-26T01:55:57;101839.03;;;1.15;61.37
7524;BME280;3803;51.666;7.630;2023-01-26T01:56:22;101844.53;;;0.99;61.47
7524;BME280;3803;51.666;7.630;2023-01-26T01:56:48;101847.88;;;1.08;61.77
7524;BME280;3803;51.666;7.630;2023-01-26T01:57:22;101850.44;;;0.98;61.97
7524;BME280;3803;51.666;7.630;2023-01-26T01:57:52;101841.09;;;0.98;61.86
7524;BME280;3803;51.666;7.630;2023-01-26T01:58:15;101836.69;;;0.87;62.31
7524;BME280;3803;51.666;7.630;2023-01-26T01:58:38;101844.78;;;0.91;62.32
7524;BME280;3803;51.666;7.630;2023-01-26T01:59:01;101842.34;;;0.93;62.43
7524;BME280;3803;51.666;7.630;2023-01-26T01:59:23;101840.28;;;0.89;62.57
7524;BME280;3803;51.666;7.630;2023-01-26T01:59:50;101860.47;;;1.05;62.46
7524;BME280;3803;51.666;7.630;2023-01-26T02:00:16;101844.78;;;0.91;62.65
7524;BME280;3803;51.666;7.630;2023-01-26T02:00:37;101837.47;;;0.96;62.70
7524;BME280;3803;51.666;7.630;2023-01-26T02:00:58;101832.56;;;0.89;62.61